Time;durP1;ratioP1;P1;durP2;ratioP2;P2;SDS_P1;SDS_P2;PMS_P1;PMS_P2;Temp;Humidity;BMP_temperature;BMP_pressure;BME280_temperature;BME280_humidity;BME280_pressure;Samples;Min_cycle;Max_cycle;Signal;HPM_P1;HPM_P2
2023/07/29 00:00:43;;;;;;;9.38;7.07;;;19.00;99.90;;;;;;5131392;27;20565;-81
2023/07/29 00:03:09;;;;;;;9.65;5.95;;;18.90;99.90;;;;;;5112840;27;20059;-81
2023/07/29 00:05:36;;;;;;;10.20;7.13;;;18.90;99.90;;;;;;5117774;27;20034;-81
2023/07/29 00:08:02;;;;;;;9.70;6.75;;;18.90;99.90;;;;;;5119780;27;20092;-81
2023/07/29 00:10:28;;;;;;;9.77;6.97;;;18.90;99.90;;;;;;5113011;27;20047;-80
2023/07/29 00:12:54;;;;;;;11.65;7.40;;;18.90;99.90;;;;;;5131025;27;20734;-81
2023/07/29 00:15:19;;;;;;;10.68;7.18;;;18.80;99.90;;;;;;5113402;27;20042;-81
2023/07/29 00:17:45;;;;;;;13.07;7.28;;;18.80;99.90;;;;;;5131364;27;20038;-81
2023/07/29 00:20:10;;;;;;;14.13;8.05;;;18.80;99.90;;;;;;5136383;27;20495;-81
2023/07/29 00:22:36;;;;;;;10.02;6.65;;;18.80;99.90;;;;;;5131916;27;20103;-81
2023/07/29 00:25:02;;;;;;;14.35;9.00;;;18.80;99.90;;;;;;5117569;27;20032;-81
2023/07/29 00:27:27;;;;;;;11.38;8.43;;;18.80;99.90;;;;;;5121172;27;20115;-81
2023/07/29 00:29:53;;;;;;;12.98;9.30;;;18.70;99.90;;;;;;5134189;27;20087;-81
2023/07/29 00:32:19;;;;;;;11.32;7.40;;;18.70;99.90;;;;;;5102716;27;20107;-81
2023/07/29 00:34:44;;;;;;;13.63;8.00;;;18.70;99.90;;;;;;5121719;27;20035;-81
2023/07/29 00:37:10;;;;;;;12.80;8.73;;;18.70;99.90;;;;;;5120163;27;20039;-81
2023/07/29 00:39:39;;;;;;;10.52;8.00;;;18.60;99.90;;;;;;5119780;27;20054;-81
2023/07/29 00:42:06;;;;;;;10.05;7.78;;;18.60;99.90;;;;;;5133268;27;20035;-81
2023/07/29 00:44:31;;;;;;;11.35;8.30;;;18.60;99.90;;;;;;5116910;27;20126;-81
2023/07/29 00:46:58;;;;;;;10.48;7.68;;;18.50;99.90;;;;;;5130604;27;20045;-81
2023/07/29 00:49:24;;;;;;;13.30;9.18;;;18.50;99.90;;;;;;5131831;27;20043;-81
2023/07/29 00:51:50;;;;;;;11.85;8.18;;;18.50;99.90;;;;;;5132489;27;20046;-81
2023/07/29 00:54:16;;;;;;;12.05;8.57;;;18.50;99.90;;;;;;5126327;27;20031;-81
2023/07/29 00:56:42;;;;;;;12.00;8.63;;;18.40;99.90;;;;;;5134889;27;20488;-81
2023/07/29 00:59:08;;;;;;;12.32;8.05;;;18.40;99.90;;;;;;5129614;27;20112;-81
2023/07/29 01:01:34;;;;;;;15.65;8.50;;;18.40;99.90;;;;;;5139969;27;20050;-81
2023/07/29 01:03:59;;;;;;;15.38;8.50;;;18.30;99.90;;;;;;5137142;27;20118;-81
2023/07/29 01:06:42;;;;;;;11.98;8.32;;;18.30;99.90;;;;;;5135949;27;20099;-81
2023/07/29 01:09:23;;;;;;;8.50;5.93;;;18.30;99.90;;;;;;5116909;27;20095;-81
2023/07/29 01:11:55;;;;;;;12.18;8.93;;;18.30;99.90;;;;;;5135591;27;20047;-81
2023/07/29 01:14:40;;;;;;;11.98;8.57;;;18.30;99.90;;;;;;5121976;27;20467;-81
2023/07/29 01:17:12;;;;;;;13.30;9.10;;;18.30;99.90;;;;;;5111462;27;20118;-81
2023/07/29 01:20:03;;;;;;;13.30;9.55;;;18.20;99.90;;;;;;5114939;27;20035;-81
2023/07/29 01:22:30;;;;;;;12.23;9.38;;;18.20;99.90;;;;;;5137839;27;20034;-81
2023/07/29 01:24:57;;;;;;;14.13;9.60;;;18.20;99.90;;;;;;5130318;27;20039;-81
2023/07/29 01:27:23;;;;;;;15.02;9.68;;;18.10;99.90;;;;;;5122000;27;20054;-81
2023/07/29 01:29:48;;;;;;;15.50;8.23;;;18.10;99.90;;;;;;5121105;27;20038;-81
2023/07/29 01:32:23;;;;;;;13.65;9.63;;;18.10;99.90;;;;;;5117998;27;20485;-81
2023/07/29 01:34:56;;;;;;;7.85;6.13;;;18.10;99.90;;;;;;5111837;27;20509;-81
2023/07/29 01:37:26;;;;;;;10.48;8.00;;;18.00;99.90;;;;;;5133273;27;20333;-81
2023/07/29 01:39:56;;;;;;;11.90;9.05;;;18.10;99.90;;;;;;5132287;27;20094;-81
2023/07/29 01:42:22;;;;;;;12.55;9.25;;;18.00;99.90;;;;;;5129485;27;20038;-81
2023/07/29 01:44:48;;;;;;;9.73;6.78;;;18.00;99.90;;;;;;5111257;27;20491;-81
2023/07/29 01:47:14;;;;;;;11.27;7.38;;;18.00;99.90;;;;;;5131311;27;20082;-81
2023/07/29 01:49:39;;;;;;;10.38;7.90;;;17.90;99.90;;;;;;5132136;27;20058;-81
2023/07/29 01:52:05;;;;;;;9.98;6.80;;;18.00;99.90;;;;;;5129543;27;20233;-80
2023/07/29 01:54:31;;;;;;;10.95;8.43;;;17.90;99.90;;;;;;5129882;27;20115;-81
2023/07/29 01:56:56;;;;;;;11.55;8.40;;;17.90;99.90;;;;;;5135984;27;20066;-81
2023/07/29 01:59:22;;;;;;;12.27;8.15;;;17.80;99.90;;;;;;5130471;27;20065;-81
2023/07/29 02:01:48;;;;;;;11.25;8.32;;;17.80;99.90;;;;;;5117140;28;20047;-81
2023/07/29 02:04:14;;;;;;;11.88;9.00;;;17.80;99.90;;;;;;5111316;28;20051;-81
2023/07/29 02:06:40;;;;;;;10.88;8.20;;;17.80;99.90;;;;;;5108269;28;20048;-81
2023/07/29 02:09:05;;;;;;;13.32;8.68;;;17.80;99.90;;;;;;5108664;28;20439;-80
2023/07/29 02:11:31;;;;;;;14.73;8.85;;;17.70;99.90;;;;;;5118994;28;20031;-81
2023/07/29 02:13:57;;;;;;;9.90;7.65;;;17.80;99.90;;;;;;5114382;28;20385;-81
2023/07/29 02:16:23;;;;;;;11.43;8.55;;;17.70;99.90;;;;;;5110535;28;20068;-81
2023/07/29 02:18:49;;;;;;;15.18;8.00;;;17.70;99.90;;;;;;5112782;28;20040;-81
2023/07/29 02:21:16;;;;;;;11.27;7.70;;;17.70;99.90;;;;;;5113885;28;20039;-81
2023/07/29 02:23:41;;;;;;;11.82;8.32;;;17.70;99.90;;;;;;5121326;28;20062;-81
2023/07/29 02:26:07;;;;;;;13.98;8.07;;;17.70;99.90;;;;;;5117853;28;20128;-81
2023/07/29 02:28:33;;;;;;;11.43;8.35;;;17.70;99.90;;;;;;5110955;28;20081;-81
2023/07/29 02:31:19;;;;;;;12.57;7.97;;;17.70;99.90;;;;;;5114573;28;20038;-81
2023/07/29 02:33:45;;;;;;;12.00;7.53;;;17.60;99.90;;;;;;5091465;28;20402;-81
2023/07/29 02:36:12;;;;;;;11.50;7.57;;;17.70;99.90;;;;;;5108462;28;20043;-81
2023/07/29 02:38:39;;;;;;;11.82;6.45;;;17.60;99.90;;;;;;5108468;28;20385;-81
2023/07/29 02:41:04;;;;;;;8.95;6.47;;;17.60;99.90;;;;;;5109912;28;20079;-81
2023/07/29 02:43:30;;;;;;;10.07;7.05;;;17.60;99.90;;;;;;5108760;28;20108;-81
2023/07/29 02:45:55;;;;;;;11.15;7.45;;;17.60;99.90;;;;;;5108349;28;20051;-81
2023/07/29 02:48:21;;;;;;;11.20;6.75;;;17.60;99.90;;;;;;5116438;28;20047;-81
2023/07/29 02:50:47;;;;;;;10.30;6.93;;;17.60;99.90;;;;;;5117281;27;20039;-81
2023/07/29 02:53:12;;;;;;;11.82;6.30;;;17.70;99.90;;;;;;5117152;27;20044;-81
2023/07/29 02:55:41;;;;;;;11.55;7.55;;;17.70;99.90;;;;;;5112043;27;20120;-81
2023/07/29 02:58:07;;;;;;;13.10;7.57;;;17.60;99.90;;;;;;5112223;27;20050;-81
2023/07/29 03:00:33;;;;;;;9.65;6.60;;;17.60;99.90;;;;;;5113545;27;20173;-81
2023/07/29 03:02:59;;;;;;;11.35;7.22;;;17.50;99.90;;;;;;5132234;27;20138;-81
2023/07/29 03:05:28;;;;;;;11.98;6.72;;;17.60;99.90;;;;;;5118462;27;20051;-81
2023/07/29 03:07:53;;;;;;;11.73;7.22;;;17.50;99.90;;;;;;5113902;27;20497;-81
2023/07/29 03:10:20;;;;;;;10.60;7.15;;;17.60;99.90;;;;;;5117094;27;20068;-81
2023/07/29 03:12:46;;;;;;;11.75;7.05;;;17.60;99.90;;;;;;5114542;27;20062;-81
2023/07/29 03:15:12;;;;;;;7.60;5.05;;;17.50;99.90;;;;;;5104551;27;20035;-81
2023/07/29 03:17:38;;;;;;;9.35;5.32;;;17.50;99.90;;;;;;5132562;27;20488;-81
2023/07/29 03:20:04;;;;;;;9.90;5.82;;;17.50;99.90;;;;;;5121982;27;20075;-81
2023/07/29 03:22:30;;;;;;;11.45;5.53;;;17.60;99.90;;;;;;5133109;27;20168;-81
2023/07/29 03:24:56;;;;;;;9.95;5.32;;;17.60;99.90;;;;;;5115516;27;20114;-81
2023/07/29 03:27:21;;;;;;;7.93;5.57;;;17.50;99.90;;;;;;5118327;27;20050;-81
2023/07/29 03:29:47;;;;;;;9.60;4.50;;;17.50;99.90;;;;;;5133720;27;20061;-81
2023/07/29 03:32:13;;;;;;;10.13;5.35;;;17.50;99.90;;;;;;5122765;27;20074;-81
2023/07/29 03:34:40;;;;;;;9.50;5.55;;;17.50;99.90;;;;;;5139623;27;20042;-81
2023/07/29 03:37:06;;;;;;;7.28;4.57;;;17.50;99.90;;;;;;5134011;27;20091;-81
2023/07/29 03:39:32;;;;;;;8.02;4.70;;;17.50;99.90;;;;;;5119599;27;20044;-81
2023/07/29 03:41:58;;;;;;;9.13;5.40;;;17.40;99.90;;;;;;5112849;27;20038;-81
2023/07/29 03:44:24;;;;;;;10.15;5.18;;;17.40;99.90;;;;;;5136773;27;20069;-81
2023/07/29 03:46:49;;;;;;;8.27;4.90;;;17.40;99.90;;;;;;5119256;27;20046;-81
2023/07/29 03:49:15;;;;;;;7.95;4.78;;;17.40;99.90;;;;;;5141126;27;20043;-81
2023/07/29 03:51:41;;;;;;;8.07;4.68;;;17.40;99.90;;;;;;5131440;27;20043;-81
2023/07/29 03:54:06;;;;;;;7.80;5.40;;;17.30;99.90;;;;;;5131924;27;20038;-81
2023/07/29 03:56:32;;;;;;;7.30;4.72;;;17.30;99.90;;;;;;5124103;27;20039;-81
2023/07/29 03:59:07;;;;;;;9.65;4.80;;;17.30;99.90;;;;;;5130343;27;20042;-80
2023/07/29 04:01:32;;;;;;;8.77;4.18;;;17.30;99.90;;;;;;5131451;27;20104;-81
2023/07/29 04:03:59;;;;;;;7.65;3.92;;;17.30;99.90;;;;;;5112853;27;20035;-81
2023/07/29 04:06:25;;;;;;;9.20;4.68;;;17.30;99.90;;;;;;5117860;27;20541;-81
2023/07/29 04:08:51;;;;;;;9.13;4.88;;;17.30;99.90;;;;;;5114352;27;20039;-81
2023/07/29 04:11:16;;;;;;;9.85;5.55;;;17.30;99.90;;;;;;5112874;27;20435;-81
2023/07/29 04:13:42;;;;;;;9.52;5.07;;;17.30;99.90;;;;;;5133586;27;20039;-81
2023/07/29 04:16:08;;;;;;;8.35;4.38;;;17.30;99.90;;;;;;5130794;27;20070;-81
2023/07/29 04:18:33;;;;;;;7.68;4.63;;;17.20;99.90;;;;;;5135644;27;20048;-81
2023/07/29 04:20:59;;;;;;;7.40;4.38;;;17.20;99.90;;;;;;5130978;27;20035;-81
2023/07/29 04:23:24;;;;;;;6.50;4.20;;;17.20;99.90;;;;;;5131331;27;20062;-81
2023/07/29 04:25:51;;;;;;;8.43;4.55;;;17.20;99.90;;;;;;5135668;27;20070;-81
2023/07/29 04:28:17;;;;;;;6.97;4.95;;;17.20;99.90;;;;;;5131724;27;20481;-81
2023/07/29 04:30:42;;;;;;;8.73;5.38;;;17.20;99.90;;;;;;5126867;27;20034;-81
2023/07/29 04:33:08;;;;;;;10.93;5.43;;;17.20;99.90;;;;;;5131025;27;20121;-81
2023/07/29 04:35:34;;;;;;;9.73;5.30;;;17.20;99.90;;;;;;5112413;27;20046;-81
2023/07/29 04:37:59;;;;;;;9.93;5.90;;;17.20;99.90;;;;;;5130584;27;20038;-81
2023/07/29 04:40:25;;;;;;;11.60;5.38;;;17.20;99.90;;;;;;5124226;27;20068;-81
2023/07/29 04:42:51;;;;;;;8.48;4.78;;;17.20;99.90;;;;;;5126801;27;20042;-81
2023/07/29 04:45:17;;;;;;;8.95;5.50;;;17.20;99.90;;;;;;5130626;27;20110;-81
2023/07/29 04:47:42;;;;;;;8.98;5.45;;;17.20;99.90;;;;;;5116742;27;20773;-81
2023/07/29 04:50:09;;;;;;;9.18;5.05;;;17.20;99.90;;;;;;5111162;27;20046;-81
2023/07/29 04:52:34;;;;;;;9.40;5.22;;;17.20;99.90;;;;;;5135372;27;20504;-81
2023/07/29 04:55:00;;;;;;;9.27;4.97;;;17.30;99.90;;;;;;5120464;27;20077;-81
2023/07/29 04:57:25;;;;;;;8.43;5.05;;;17.20;99.90;;;;;;5141544;27;20496;-81
2023/07/29 04:59:51;;;;;;;10.80;5.63;;;17.20;99.90;;;;;;5112265;27;20047;-81
2023/07/29 05:02:17;;;;;;;9.55;5.45;;;17.20;99.90;;;;;;5131624;27;20058;-81
2023/07/29 05:04:42;;;;;;;5.25;3.45;;;17.30;99.90;;;;;;5133784;27;20039;-81
2023/07/29 05:07:08;;;;;;;7.70;5.13;;;17.30;99.90;;;;;;5130950;27;20570;-81
2023/07/29 05:09:34;;;;;;;10.95;4.90;;;17.30;99.90;;;;;;5131693;27;20685;-81
2023/07/29 05:12:00;;;;;;;7.22;4.70;;;17.30;99.90;;;;;;5111156;27;20099;-81
2023/07/29 05:14:26;;;;;;;6.85;3.67;;;17.30;99.90;;;;;;5130262;27;20110;-81
2023/07/29 05:16:51;;;;;;;9.45;5.50;;;17.30;99.90;;;;;;5132238;27;20092;-81
2023/07/29 05:19:17;;;;;;;10.50;4.32;;;17.30;99.90;;;;;;5118227;27;20041;-81
2023/07/29 05:21:43;;;;;;;7.57;4.80;;;17.30;99.90;;;;;;5134285;27;20061;-81
2023/07/29 05:24:09;;;;;;;7.10;3.92;;;17.30;99.90;;;;;;5111842;27;20051;-81
2023/07/29 05:26:34;;;;;;;8.88;3.85;;;17.30;99.90;;;;;;5114038;27;20293;-81
2023/07/29 05:29:00;;;;;;;6.68;3.40;;;17.30;99.90;;;;;;5136070;27;20074;-81
2023/07/29 05:31:26;;;;;;;5.68;3.13;;;17.30;99.90;;;;;;5129766;27;20035;-81
2023/07/29 05:33:51;;;;;;;7.90;4.90;;;17.30;99.90;;;;;;5111792;27;20477;-81
2023/07/29 05:36:17;;;;;;;7.60;4.10;;;17.30;99.90;;;;;;5112702;27;20031;-81
2023/07/29 05:38:42;;;;;;;8.52;4.00;;;17.40;99.90;;;;;;5118950;27;20043;-81
2023/07/29 05:41:08;;;;;;;7.82;3.70;;;17.40;99.90;;;;;;5129713;27;20039;-81
2023/07/29 05:43:34;;;;;;;6.40;3.85;;;17.40;99.90;;;;;;5111754;27;20049;-81
2023/07/29 05:45:59;;;;;;;7.13;3.90;;;17.40;99.90;;;;;;5129508;27;20110;-81
2023/07/29 05:48:25;;;;;;;8.13;3.40;;;17.40;99.90;;;;;;5136924;27;20035;-81
2023/07/29 05:50:50;;;;;;;9.45;3.80;;;17.40;99.90;;;;;;5134421;27;20034;-81
2023/07/29 05:53:16;;;;;;;7.45;4.07;;;17.40;99.90;;;;;;5129485;27;20110;-81
2023/07/29 05:55:42;;;;;;;7.35;3.03;;;17.40;99.90;;;;;;5113266;27;20465;-81
2023/07/29 05:58:07;;;;;;;7.85;3.55;;;17.40;99.90;;;;;;5102310;28;20130;-81
2023/07/29 06:00:33;;;;;;;7.00;3.45;;;17.40;99.90;;;;;;5136996;27;20077;-81
2023/07/29 06:02:59;;;;;;;7.53;2.85;;;17.40;99.90;;;;;;5111347;27;20059;-81
2023/07/29 06:05:25;;;;;;;7.20;3.00;;;17.50;99.90;;;;;;5129837;27;20035;-81
2023/07/29 06:07:50;;;;;;;8.30;3.13;;;17.50;99.90;;;;;;5139192;27;20507;-81
2023/07/29 06:10:19;;;;;;;8.50;3.03;;;17.50;99.90;;;;;;5135428;27;20039;-81
2023/07/29 06:12:46;;;;;;;7.45;3.17;;;17.50;99.90;;;;;;5099684;27;20043;-81
2023/07/29 06:15:12;;;;;;;8.82;2.75;;;17.50;99.90;;;;;;5129484;27;21599;-81
2023/07/29 06:17:38;;;;;;;6.75;2.90;;;17.50;99.90;;;;;;5114096;27;20043;-81
2023/07/29 06:20:04;;;;;;;6.15;2.65;;;17.50;99.90;;;;;;5133736;27;20042;-81
2023/07/29 06:22:30;;;;;;;9.20;3.00;;;17.60;99.90;;;;;;5137779;27;20119;-81
2023/07/29 06:24:55;;;;;;;6.18;2.63;;;17.70;99.90;;;;;;5115946;27;20359;-81
2023/07/29 06:27:21;;;;;;;7.68;2.97;;;17.70;99.90;;;;;;5098599;27;20510;-81
2023/07/29 06:29:46;;;;;;;6.43;2.50;;;17.70;99.90;;;;;;5120506;27;20047;-81
2023/07/29 06:32:12;;;;;;;5.25;2.60;;;17.70;99.90;;;;;;5114179;27;20496;-81
2023/07/29 06:34:38;;;;;;;6.38;2.55;;;17.80;99.90;;;;;;5128439;27;20168;-81
2023/07/29 06:37:03;;;;;;;13.00;4.68;;;17.80;99.90;;;;;;5100326;27;20031;-81
2023/07/29 06:39:29;;;;;;;7.68;3.03;;;17.90;99.90;;;;;;5118749;27;20039;-81
2023/07/29 06:41:55;;;;;;;7.43;2.85;;;18.00;99.90;;;;;;5140692;27;20454;-81
2023/07/29 06:44:20;;;;;;;7.30;2.60;;;18.00;99.90;;;;;;5127804;27;20043;-82
2023/07/29 06:46:46;;;;;;;7.78;2.72;;;18.20;99.90;;;;;;5140704;27;20112;-82
2023/07/29 06:49:12;;;;;;;6.47;2.85;;;18.30;99.90;;;;;;5143522;27;20065;-82
2023/07/29 06:51:37;;;;;;;5.45;2.42;;;18.40;99.90;;;;;;5123726;27;20365;-82
2023/07/29 06:54:03;;;;;;;8.27;2.60;;;18.40;99.90;;;;;;5144054;27;20047;-81
2023/07/29 06:56:29;;;;;;;9.70;3.58;;;18.50;99.90;;;;;;5143889;27;20038;-82
2023/07/29 06:58:54;;;;;;;7.28;3.30;;;18.60;99.90;;;;;;5143253;27;20039;-83
2023/07/29 07:01:20;;;;;;;8.23;3.13;;;18.60;99.90;;;;;;5117164;27;20048;-83
2023/07/29 07:03:46;;;;;;;6.53;2.88;;;18.60;99.90;;;;;;5141408;27;20601;-82
2023/07/29 07:06:11;;;;;;;10.30;4.00;;;18.70;99.90;;;;;;5136724;27;20500;-83
2023/07/29 07:08:37;;;;;;;8.80;3.20;;;18.70;99.90;;;;;;5108287;27;20038;-84
2023/07/29 07:11:02;;;;;;;10.43;4.22;;;18.70;99.90;;;;;;5141641;27;20074;-83
2023/07/29 07:13:28;;;;;;;8.38;3.40;;;18.80;99.90;;;;;;5139733;27;20392;-83
2023/07/29 07:15:55;;;;;;;6.93;3.33;;;18.80;99.90;;;;;;5106145;27;20479;-83
2023/07/29 07:18:22;;;;;;;10.05;3.67;;;18.80;99.90;;;;;;5121871;27;20030;-83
2023/07/29 07:20:49;;;;;;;9.60;3.42;;;18.90;99.90;;;;;;5124652;27;20509;-88
2023/07/29 07:23:15;;;;;;;11.18;4.03;;;19.00;99.90;;;;;;5123972;27;20114;-81
2023/07/29 07:25:42;;;;;;;6.95;3.58;;;19.00;99.90;;;;;;5141860;27;20117;-81
2023/07/29 07:28:08;;;;;;;11.75;4.35;;;18.90;99.90;;;;;;5129532;27;20047;-81
2023/07/29 07:30:34;;;;;;;9.35;3.90;;;18.90;99.90;;;;;;5139380;27;20557;-81
2023/07/29 07:33:00;;;;;;;12.20;4.03;;;18.90;99.90;;;;;;5123231;27;20139;-81
2023/07/29 07:35:26;;;;;;;11.07;5.28;;;18.90;99.90;;;;;;5124565;27;20121;-81
2023/07/29 07:37:52;;;;;;;11.93;4.90;;;19.00;99.90;;;;;;5122198;27;20045;-81
2023/07/29 07:40:18;;;;;;;9.38;4.85;;;19.10;99.90;;;;;;5121913;27;20050;-81
2023/07/29 07:42:43;;;;;;;10.20;4.35;;;19.20;99.90;;;;;;5109046;27;20043;-81
2023/07/29 07:45:09;;;;;;;10.18;4.50;;;19.20;99.90;;;;;;5145609;27;20618;-82
2023/07/29 07:47:35;;;;;;;9.70;4.90;;;19.30;99.90;;;;;;5125710;27;20393;-82
2023/07/29 07:50:00;;;;;;;8.35;4.20;;;19.50;99.90;;;;;;5123337;27;20034;-82
2023/07/29 07:52:26;;;;;;;9.38;4.75;;;19.70;99.90;;;;;;5117340;27;20083;-82
2023/07/29 07:54:54;;;;;;;8.15;4.82;;;19.70;99.90;;;;;;5142554;27;20050;-82
2023/07/29 07:57:21;;;;;;;10.55;5.60;;;19.80;99.90;;;;;;5125810;27;20126;-82
2023/07/29 07:59:47;;;;;;;10.15;4.88;;;19.90;99.90;;;;;;5124056;27;20038;-82
2023/07/29 08:02:13;;;;;;;8.43;4.65;;;19.90;99.90;;;;;;5116528;27;20053;-82
2023/07/29 08:04:41;;;;;;;8.80;4.35;;;19.90;99.90;;;;;;5119808;27;20050;-81
2023/07/29 08:07:07;;;;;;;8.77;5.22;;;20.00;99.90;;;;;;5126631;27;20439;-82
2023/07/29 08:09:32;;;;;;;10.75;5.00;;;20.00;99.90;;;;;;5122914;27;20076;-81
2023/07/29 08:11:58;;;;;;;9.65;5.00;;;20.20;99.90;;;;;;5142844;27;20038;-82
2023/07/29 08:14:24;;;;;;;11.40;4.70;;;20.30;99.90;;;;;;5143043;27;20042;-82
2023/07/29 08:16:49;;;;;;;9.90;3.85;;;20.40;99.90;;;;;;5123169;27;20398;-82
2023/07/29 08:19:15;;;;;;;9.48;4.40;;;20.50;99.90;;;;;;5136967;27;20035;-82
2023/07/29 08:21:40;;;;;;;7.25;4.28;;;20.60;99.90;;;;;;5131719;27;20114;-83
2023/07/29 08:24:07;;;;;;;8.50;3.88;;;20.70;99.90;;;;;;5117304;27;20626;-83
2023/07/29 08:26:33;;;;;;;8.27;4.03;;;20.70;99.90;;;;;;5140617;27;20125;-82
2023/07/29 08:28:58;;;;;;;7.25;3.70;;;20.80;99.90;;;;;;5141580;27;20123;-84
2023/07/29 08:31:24;;;;;;;6.57;3.63;;;21.00;99.90;;;;;;5139410;27;20046;-82
2023/07/29 08:33:50;;;;;;;6.97;3.67;;;21.00;99.90;;;;;;5140684;27;20473;-82
2023/07/29 08:36:16;;;;;;;5.95;2.92;;;21.00;99.90;;;;;;5136352;27;20031;-81
2023/07/29 08:38:41;;;;;;;8.52;3.03;;;21.10;99.90;;;;;;5138376;27;20023;-81
2023/07/29 08:41:10;;;;;;;6.47;2.58;;;21.20;99.90;;;;;;5116658;27;20465;-81
2023/07/29 08:43:43;;;;;;;5.53;2.60;;;21.20;99.90;;;;;;5100598;27;20030;-81
2023/07/29 08:46:09;;;;;;;6.85;2.63;;;21.30;99.90;;;;;;5135721;27;20043;-81
2023/07/29 08:48:42;;;;;;;7.60;2.85;;;21.50;99.90;;;;;;5139118;27;20070;-87
2023/07/29 08:51:09;;;;;;;6.47;3.17;;;21.50;99.90;;;;;;5121920;27;20027;-80
2023/07/29 08:53:35;;;;;;;10.93;3.15;;;21.40;99.90;;;;;;5118143;27;20043;-80
2023/07/29 08:56:01;;;;;;;5.57;2.65;;;21.50;99.90;;;;;;5116695;27;20034;-80
2023/07/29 08:58:27;;;;;;;5.78;2.58;;;21.40;99.90;;;;;;5133269;27;20038;-80
2023/07/29 09:00:53;;;;;;;5.97;2.85;;;21.30;99.90;;;;;;5129881;27;20027;-82
2023/07/29 09:03:20;;;;;;;6.65;2.70;;;21.20;99.90;;;;;;5113507;27;20030;-84
2023/07/29 09:05:46;;;;;;;8.48;3.00;;;21.10;99.90;;;;;;5122907;27;20031;-82
2023/07/29 09:08:13;;;;;;;5.32;2.88;;;21.10;99.90;;;;;;5137488;27;20548;-84
2023/07/29 09:10:38;;;;;;;8.35;2.85;;;21.20;99.90;;;;;;5117220;27;20054;-84
2023/07/29 09:13:05;;;;;;;7.28;2.80;;;21.10;99.90;;;;;;5141980;27;20537;-84
2023/07/29 09:15:34;;;;;;;5.40;2.80;;;21.00;99.90;;;;;;5121506;27;20057;-84
2023/07/29 09:18:14;;;;;;;7.93;2.83;;;21.00;99.90;;;;;;5120106;27;20449;-82
2023/07/29 09:20:40;;;;;;;4.68;2.72;;;20.90;99.90;;;;;;5122024;27;20038;-81
2023/07/29 09:23:10;;;;;;;6.38;2.45;;;20.90;99.90;;;;;;5123300;27;20034;-82
2023/07/29 09:25:36;;;;;;;7.28;2.80;;;20.90;99.90;;;;;;5138865;27;20047;-82
2023/07/29 09:28:16;;;;;;;5.75;2.60;;;21.00;99.90;;;;;;5137867;27;20093;-83
2023/07/29 09:30:46;;;;;;;5.72;2.58;;;21.20;99.90;;;;;;5135672;27;20070;-81
2023/07/29 09:33:12;;;;;;;6.32;2.35;;;21.40;99.90;;;;;;5141404;27;20326;-84
2023/07/29 09:35:38;;;;;;;6.07;1.90;;;21.60;99.90;;;;;;5122042;27;20035;-85
2023/07/29 09:38:06;;;;;;;6.32;2.65;;;21.60;99.90;;;;;;5118244;27;20042;-84
2023/07/29 09:40:39;;;;;;;8.32;2.42;;;21.60;99.90;;;;;;5121096;27;20034;-88
2023/07/29 09:43:06;;;;;;;5.53;1.98;;;21.60;99.90;;;;;;5121643;27;20099;-81
2023/07/29 09:45:35;;;;;;;6.40;2.30;;;21.60;99.90;;;;;;5140721;27;20046;-80
2023/07/29 09:48:01;;;;;;;5.35;2.00;;;21.60;99.90;;;;;;5138730;27;20043;-82
2023/07/29 09:50:27;;;;;;;6.40;2.60;;;21.60;99.90;;;;;;5117103;27;20117;-83
2023/07/29 09:52:55;;;;;;;4.47;2.20;;;21.70;99.90;;;;;;5122045;27;20159;-79
2023/07/29 09:55:24;;;;;;;6.93;2.45;;;21.80;99.90;;;;;;5128449;27;20069;-79
2023/07/29 09:58:04;;;;;;;5.20;1.83;;;22.00;99.90;;;;;;5129963;27;20042;-78
2023/07/29 10:00:30;;;;;;;5.97;1.75;;;22.10;99.90;;;;;;5140805;27;20043;-82
2023/07/29 10:02:57;;;;;;;5.07;1.65;;;22.20;99.90;;;;;;5122440;27;20043;-81
2023/07/29 10:05:25;;;;;;;4.95;1.88;;;22.20;99.90;;;;;;5141391;27;20034;-80
2023/07/29 10:07:51;;;;;;;3.72;1.60;;;22.40;99.90;;;;;;5147478;27;20031;-80
2023/07/29 10:10:17;;;;;;;6.75;2.58;;;22.50;99.90;;;;;;5145439;27;20042;-81
2023/07/29 10:12:43;;;;;;;2.88;1.40;;;22.60;99.90;;;;;;5146700;27;20039;-80
2023/07/29 10:15:08;;;;;;;7.45;1.88;;;22.60;99.90;;;;;;5150238;27;20041;-80
2023/07/29 10:17:36;;;;;;;7.45;2.10;;;22.50;99.90;;;;;;5145014;27;20035;-81
2023/07/29 10:20:04;;;;;;;5.72;1.63;;;22.60;99.90;;;;;;5149834;27;20114;-80
2023/07/29 10:22:36;;;;;;;4.18;1.63;;;22.50;99.90;;;;;;5129228;27;20038;-81
2023/07/29 10:25:08;;;;;;;6.55;2.60;;;22.40;99.90;;;;;;5128739;27;20061;-80
2023/07/29 10:27:43;;;;;;;5.00;1.65;;;22.40;99.90;;;;;;5124114;27;20037;-80
2023/07/29 10:30:12;;;;;;;5.10;1.90;;;22.50;99.90;;;;;;5127357;27;20038;-80
2023/07/29 10:32:38;;;;;;;3.08;1.60;;;22.50;99.90;;;;;;5144761;27;20120;-81
2023/07/29 10:35:04;;;;;;;5.05;2.08;;;22.50;99.90;;;;;;5148772;27;20148;-80
2023/07/29 10:37:30;;;;;;;8.75;2.20;;;22.50;99.90;;;;;;5128135;27;20043;-81
2023/07/29 10:39:56;;;;;;;5.75;2.28;;;22.50;99.90;;;;;;5146824;27;20433;-80
2023/07/29 10:42:22;;;;;;;6.97;2.53;;;22.50;99.90;;;;;;5131187;27;20110;-81
2023/07/29 10:44:49;;;;;;;6.10;2.13;;;22.50;99.90;;;;;;5124907;27;20035;-82
2023/07/29 10:47:16;;;;;;;6.25;2.03;;;22.60;99.90;;;;;;5124962;27;20397;-84
2023/07/29 10:49:46;;;;;;;3.85;1.67;;;22.70;99.90;;;;;;5126020;27;20485;-81
2023/07/29 10:52:16;;;;;;;5.22;1.70;;;22.80;99.90;;;;;;5144567;27;20070;-81
2023/07/29 10:54:42;;;;;;;4.90;1.73;;;23.10;99.90;;;;;;5123957;27;20114;-81
2023/07/29 10:57:16;;;;;;;4.80;1.80;;;23.30;99.90;;;;;;5123429;27;20053;-81
2023/07/29 10:59:54;;;;;;;4.55;1.58;;;23.30;99.90;;;;;;5147999;27;20035;-81
2023/07/29 11:02:20;;;;;;;4.78;1.70;;;23.30;99.90;;;;;;5147850;27;20099;-81
2023/07/29 11:04:47;;;;;;;6.35;1.45;;;23.30;99.90;;;;;;5128985;27;20071;-79
2023/07/29 11:07:13;;;;;;;3.05;1.05;;;23.20;99.90;;;;;;5144297;27;20087;-79
2023/07/29 11:09:48;;;;;;;4.30;1.15;;;23.20;99.90;;;;;;5142646;27;20039;-82
2023/07/29 11:12:35;;;;;;;5.25;1.20;;;23.30;99.90;;;;;;5108154;27;20062;-81
2023/07/29 11:15:17;;;;;;;5.47;1.30;;;23.40;99.90;;;;;;5117801;27;20100;-81
2023/07/29 11:17:55;;;;;;;5.47;1.30;;;23.30;99.90;;;;;;5132162;27;20123;-81
2023/07/29 11:20:25;;;;;;;3.10;1.10;;;23.10;99.90;;;;;;5135980;27;20483;-81
2023/07/29 11:22:53;;;;;;;3.90;1.10;;;22.80;99.90;;;;;;5114218;27;20039;-81
2023/07/29 11:25:21;;;;;;;6.13;1.17;;;22.70;99.90;;;;;;5120337;27;20096;-81
2023/07/29 11:27:47;;;;;;;3.95;1.00;;;22.60;99.90;;;;;;5131513;27;20338;-81
2023/07/29 11:30:14;;;;;;;2.58;1.05;;;22.70;99.90;;;;;;5136614;27;20466;-81
2023/07/29 11:32:41;;;;;;;5.82;1.17;;;22.90;99.90;;;;;;5132516;27;20043;-81
2023/07/29 11:35:10;;;;;;;3.83;1.00;;;23.10;99.90;;;;;;5113522;27;20043;-81
2023/07/29 11:37:37;;;;;;;4.78;1.10;;;23.20;99.90;;;;;;5131419;27;20155;-81
2023/07/29 11:40:04;;;;;;;5.90;1.50;;;23.30;99.90;;;;;;5134632;27;20493;-81
2023/07/29 11:42:33;;;;;;;4.43;1.15;;;23.20;99.90;;;;;;5132296;27;20041;-81
2023/07/29 11:45:00;;;;;;;4.70;1.33;;;23.20;99.90;;;;;;5132057;27;20041;-81
2023/07/29 11:47:26;;;;;;;5.35;1.15;;;23.20;99.90;;;;;;5132257;27;20493;-81
2023/07/29 11:49:52;;;;;;;6.55;1.50;;;23.20;99.90;;;;;;5137434;27;20046;-82
2023/07/29 11:52:19;;;;;;;4.68;1.50;;;23.30;99.90;;;;;;5131714;27;20031;-81
2023/07/29 11:54:46;;;;;;;5.28;1.73;;;23.40;99.90;;;;;;5137237;27;20181;-81
2023/07/29 11:57:13;;;;;;;5.65;1.95;;;23.50;99.90;;;;;;5131631;27;20042;-81
2023/07/29 11:59:39;;;;;;;4.45;1.42;;;23.60;99.90;;;;;;5132964;27;20039;-81
2023/07/29 12:02:10;;;;;;;6.13;1.60;;;23.60;99.90;;;;;;5134147;27;20078;-81
2023/07/29 12:04:37;;;;;;;7.22;1.77;;;23.70;99.90;;;;;;5117261;27;20031;-81
2023/07/29 12:07:03;;;;;;;5.20;1.48;;;23.70;99.90;;;;;;5114171;27;20040;-81
2023/07/29 12:09:30;;;;;;;3.85;1.30;;;23.80;99.90;;;;;;5132059;27;20172;-81
2023/07/29 12:11:56;;;;;;;5.63;2.00;;;23.80;99.90;;;;;;5117991;27;20038;-81
2023/07/29 12:14:22;;;;;;;6.57;1.60;;;23.70;99.90;;;;;;5131975;27;20393;-81
2023/07/29 12:16:49;;;;;;;9.02;2.45;;;23.60;99.90;;;;;;5133909;27;20034;-81
2023/07/29 12:19:15;;;;;;;7.80;2.10;;;23.30;99.90;;;;;;5134323;27;20051;-81
2023/07/29 12:21:44;;;;;;;7.35;2.83;;;23.20;99.90;;;;;;5134125;27;20230;-81
2023/07/29 12:24:12;;;;;;;6.85;2.70;;;23.00;99.90;;;;;;5131221;27;20039;-81
2023/07/29 12:26:38;;;;;;;8.32;2.38;;;22.90;99.90;;;;;;5131442;27;20132;-81
2023/07/29 12:29:14;;;;;;;5.90;2.00;;;22.90;99.90;;;;;;5136133;27;20110;-81
2023/07/29 12:31:39;;;;;;;6.47;2.50;;;23.00;99.90;;;;;;5130915;27;20490;-81
2023/07/29 12:34:05;;;;;;;7.10;2.67;;;23.10;99.90;;;;;;5130713;27;20045;-81
2023/07/29 12:36:45;;;;;;;7.78;2.40;;;23.20;99.90;;;;;;5112262;27;20050;-81
2023/07/29 12:39:18;;;;;;;4.07;1.80;;;23.30;99.90;;;;;;5132519;27;20087;-81
2023/07/29 12:41:44;;;;;;;5.65;2.38;;;23.30;99.90;;;;;;5130987;27;20167;-81